Time;durP1;ratioP1;P1;durP2;ratioP2;P2;SDS_P1;SDS_P2;PMS_P1;PMS_P2;Temp;Humidity;BMP_temperature;BMP_pressure;BME280_temperature;BME280_humidity;BME280_pressure;Samples;Min_cycle;Max_cycle;Signal;HPM_P1;HPM_P2
2023/02/19 00:02:56;;;;;;;6.43;5.00;;;12.60;99.90;;;;;;10424800;28;20198;-82
2023/02/19 00:07:58;;;;;;;5.20;4.80;;;12.70;99.90;;;;;;10423411;28;20303;-81
2023/02/19 00:13:02;;;;;;;5.50;5.10;;;12.70;99.90;;;;;;10431253;28;20222;-82
2023/02/19 00:18:04;;;;;;;4.63;4.23;;;12.70;99.90;;;;;;10464637;28;20284;-82
2023/02/19 00:23:06;;;;;;;4.57;4.13;;;12.70;99.90;;;;;;10438981;28;20189;-83
2023/02/19 00:28:09;;;;;;;3.80;3.50;;;12.70;99.90;;;;;;10469016;28;20704;-82
2023/02/19 00:33:11;;;;;;;3.43;3.23;;;12.70;99.90;;;;;;10449410;28;20301;-81
2023/02/19 00:38:13;;;;;;;3.40;3.20;;;12.70;99.90;;;;;;10449957;28;20232;-82
2023/02/19 00:43:17;;;;;;;3.87;3.60;;;12.80;99.90;;;;;;10425465;28;20189;-81
2023/02/19 00:48:19;;;;;;;3.23;3.03;;;12.80;99.90;;;;;;10495530;28;20225;-81
2023/02/19 00:53:21;;;;;;;3.93;3.57;;;12.80;99.90;;;;;;10440006;28;20214;-81
2023/02/19 00:58:24;;;;;;;3.37;3.07;;;12.80;99.90;;;;;;10441237;28;20237;-82
2023/02/19 01:03:27;;;;;;;2.83;2.70;;;12.80;99.90;;;;;;10485855;28;20220;-82
2023/02/19 01:08:30;;;;;;;3.20;3.00;;;12.80;99.90;;;;;;10479440;28;20201;-82
2023/02/19 01:13:37;;;;;;;3.50;3.30;;;12.80;99.90;;;;;;10440995;28;20229;-82
2023/02/19 01:18:39;;;;;;;3.53;3.30;;;12.80;99.90;;;;;;10423555;28;20652;-82
2023/02/19 01:23:42;;;;;;;4.17;2.93;;;12.80;99.90;;;;;;10414238;28;20199;-82
2023/02/19 01:28:47;;;;;;;2.83;2.73;;;12.80;99.90;;;;;;10361160;28;20210;-82
2023/02/19 01:33:51;;;;;;;3.20;3.00;;;12.70;99.90;;;;;;10385149;28;20651;-82
2023/02/19 01:38:53;;;;;;;12.90;11.73;;;12.80;99.90;;;;;;10414189;28;20245;-83
2023/02/19 01:44:00;;;;;;;2.53;2.43;;;12.80;99.90;;;;;;10381155;28;20274;-82
2023/02/19 01:49:08;;;;;;;3.20;3.00;;;12.80;99.90;;;;;;10393138;28;20218;-81
2023/02/19 01:54:12;;;;;;;2.67;2.57;;;12.70;99.90;;;;;;10401066;28;20223;-82
2023/02/19 01:59:18;;;;;;;3.13;2.80;;;12.70;99.90;;;;;;10376230;28;20245;-82
2023/02/19 02:04:20;;;;;;;2.70;2.60;;;12.70;99.90;;;;;;10388938;28;20196;-82
2023/02/19 02:14:48;;;;;;;2.73;2.63;;;12.70;99.90;;;;;;10408921;28;20659;-82
2023/02/19 02:20:06;;;;;;;2.47;2.37;;;12.80;99.90;;;;;;10420715;22;20226;-82
2023/02/19 02:25:41;;;;;;;2.87;2.77;;;12.80;99.90;;;;;;10423538;28;20194;-81
2023/02/19 02:30:46;;;;;;;3.10;2.90;;;12.80;99.90;;;;;;10426437;28;20326;-81
2023/02/19 02:35:52;;;;;;;3.20;3.03;;;12.70;99.90;;;;;;10419546;28;20195;-82
2023/02/19 02:40:56;;;;;;;3.10;2.90;;;12.70;99.90;;;;;;10415827;28;20731;-80
2023/02/19 02:46:01;;;;;;;3.60;3.40;;;12.50;99.90;;;;;;10422113;28;20191;-80
2023/02/19 02:51:14;;;;;;;3.00;2.90;;;12.40;99.90;;;;;;10413734;28;20218;-82
2023/02/19 02:56:24;;;;;;;3.33;3.13;;;12.40;99.90;;;;;;10395191;28;20293;-81
2023/02/19 03:06:52;;;;;;;3.77;3.57;;;12.30;99.90;;;;;;10393932;28;20210;-80
2023/02/19 03:22:46;;;;;;;2.63;2.50;;;12.30;99.90;;;;;;10430972;28;20276;-81
2023/02/19 03:27:50;;;;;;;2.77;2.67;;;12.30;99.90;;;;;;10464741;28;20219;-80
2023/02/19 03:33:00;;;;;;;3.57;3.37;;;12.20;99.90;;;;;;10464160;28;20232;-81
2023/02/19 03:38:07;;;;;;;3.27;3.17;;;12.20;99.90;;;;;;10447095;28;20204;-81
2023/02/19 03:43:19;;;;;;;3.53;3.37;;;12.10;99.90;;;;;;10448051;28;20233;-80
2023/02/19 03:48:33;;;;;;;3.23;3.13;;;12.00;99.90;;;;;;10429922;28;20197;-81
2023/02/19 03:53:41;;;;;;;3.53;3.43;;;12.00;99.90;;;;;;10463264;28;20221;-81
2023/02/19 03:58:53;;;;;;;4.10;3.67;;;12.00;99.90;;;;;;10446117;28;20214;-81
2023/02/19 04:04:02;;;;;;;3.57;3.40;;;12.00;99.90;;;;;;10414598;28;20214;-81
2023/02/19 04:09:09;;;;;;;3.80;3.60;;;11.90;99.90;;;;;;10446114;28;20233;-81
2023/02/19 04:14:18;;;;;;;3.30;3.10;;;11.90;99.90;;;;;;10447145;28;20225;-81
2023/02/19 04:19:25;;;;;;;3.10;3.00;;;11.90;99.90;;;;;;10446474;28;20204;-81
2023/02/19 04:24:30;;;;;;;3.03;2.90;;;12.00;99.90;;;;;;10457951;28;20217;-81
2023/02/19 04:29:32;;;;;;;3.70;3.50;;;12.00;99.90;;;;;;10449304;28;20237;-81
2023/02/19 04:34:36;;;;;;;3.00;2.90;;;12.00;99.90;;;;;;10438193;28;20586;-81
2023/02/19 04:39:38;;;;;;;2.80;2.70;;;12.00;99.90;;;;;;10449702;28;20196;-81
2023/02/19 04:44:40;;;;;;;2.80;2.60;;;12.10;99.90;;;;;;10459110;28;20202;-80
2023/02/19 04:49:44;;;;;;;2.67;2.57;;;12.10;99.90;;;;;;10418444;28;20357;-81
2023/02/19 04:54:46;;;;;;;2.40;2.30;;;12.10;99.90;;;;;;10427776;28;20194;-80
2023/02/19 04:59:48;;;;;;;2.00;1.90;;;12.10;99.90;;;;;;10447914;28;20213;-80
2023/02/19 05:04:51;;;;;;;2.43;2.10;;;12.10;99.90;;;;;;10447267;28;20693;-80
2023/02/19 05:09:53;;;;;;;2.00;2.00;;;12.10;99.90;;;;;;10444455;28;20212;-80
2023/02/19 05:14:55;;;;;;;2.03;1.90;;;12.10;99.90;;;;;;10437456;28;20564;-80
2023/02/19 05:19:59;;;;;;;1.97;1.97;;;12.10;99.90;;;;;;10447868;28;20196;-79
2023/02/19 05:25:01;;;;;;;2.10;2.00;;;12.10;99.90;;;;;;10412314;28;20530;-79
2023/02/19 05:30:03;;;;;;;1.83;1.77;;;12.10;99.90;;;;;;10430488;28;20682;-79
2023/02/19 05:35:07;;;;;;;2.00;2.00;;;12.10;99.90;;;;;;10411613;28;20676;-80
2023/02/19 05:40:09;;;;;;;1.80;1.80;;;12.10;99.90;;;;;;10406724;28;20240;-80
2023/02/19 05:45:11;;;;;;;1.77;1.77;;;12.10;99.90;;;;;;10422219;28;20244;-80
2023/02/19 05:50:15;;;;;;;2.07;1.97;;;12.10;99.90;;;;;;10420905;28;20219;-80
2023/02/19 05:55:17;;;;;;;1.97;1.97;;;12.10;99.90;;;;;;10384674;28;20195;-80
2023/02/19 06:00:20;;;;;;;2.40;2.30;;;12.10;99.90;;;;;;10401064;28;20717;-79
2023/02/19 06:05:23;;;;;;;2.00;2.00;;;12.10;99.90;;;;;;10399651;28;20199;-79
2023/02/19 06:10:27;;;;;;;1.63;1.60;;;12.10;99.90;;;;;;10403033;28;20229;-80
2023/02/19 06:15:29;;;;;;;1.90;1.90;;;12.10;99.90;;;;;;10419944;28;20613;-80
2023/02/19 06:20:32;;;;;;;28.23;16.53;;;12.00;99.90;;;;;;10410657;28;20685;-80
2023/02/19 06:25:34;;;;;;;8.03;5.40;;;12.00;99.90;;;;;;10443547;28;20530;-79
2023/02/19 06:30:36;;;;;;;2.20;2.10;;;11.90;99.90;;;;;;10445509;28;20576;-79
2023/02/19 06:35:40;;;;;;;1.57;1.57;;;11.90;99.90;;;;;;10424006;28;20703;-80
2023/02/19 06:40:42;;;;;;;1.70;1.70;;;11.80;99.90;;;;;;10437127;28;20238;-80
2023/02/19 06:45:44;;;;;;;1.90;1.90;;;11.80;99.90;;;;;;10449725;28;20616;-80
2023/02/19 06:50:47;;;;;;;1.80;1.80;;;11.80;99.90;;;;;;10449491;28;20612;-80
2023/02/19 06:55:56;;;;;;;1.77;1.67;;;11.80;99.90;;;;;;10432484;28;20213;-80
2023/02/19 07:00:58;;;;;;;2.10;2.00;;;11.80;99.90;;;;;;10444724;28;20214;-81
2023/02/19 07:06:01;;;;;;;1.90;1.80;;;11.80;99.90;;;;;;10445168;28;20197;-80
2023/02/19 07:11:04;;;;;;;2.10;2.00;;;11.80;99.90;;;;;;10450019;28;20242;-80
2023/02/19 07:16:08;;;;;;;2.30;2.20;;;11.80;99.90;;;;;;10442112;28;20581;-80
2023/02/19 07:21:14;;;;;;;1.80;1.70;;;11.80;99.90;;;;;;10462527;28;20627;-80
2023/02/19 07:26:18;;;;;;;1.80;1.80;;;11.80;99.90;;;;;;10448712;28;20261;-80
2023/02/19 07:31:22;;;;;;;2.30;2.20;;;11.80;99.90;;;;;;10451676;28;20598;-78
2023/02/19 07:36:25;;;;;;;2.10;2.00;;;11.80;99.90;;;;;;10450413;28;20200;-79
2023/02/19 07:41:28;;;;;;;2.53;2.40;;;11.80;99.90;;;;;;10457309;28;20308;-80
2023/02/19 07:46:32;;;;;;;2.80;2.60;;;11.80;99.90;;;;;;10436964;28;20610;-79
2023/02/19 07:51:38;;;;;;;2.20;2.10;;;11.90;99.90;;;;;;10434660;28;20241;-79
2023/02/19 07:56:40;;;;;;;2.40;2.30;;;11.90;99.90;;;;;;10435355;28;20571;-80
2023/02/19 08:07:04;;;;;;;2.47;2.37;;;12.00;99.90;;;;;;10444625;28;20199;-79
2023/02/19 08:17:26;;;;;;;2.20;2.00;;;12.10;99.90;;;;;;10437636;28;20198;-80
2023/02/19 08:22:30;;;;;;;2.10;2.00;;;12.20;99.90;;;;;;10442042;28;20226;-81
2023/02/19 08:27:32;;;;;;;2.20;2.10;;;12.30;99.90;;;;;;10400139;28;20289;-79
2023/02/19 08:32:34;;;;;;;2.37;2.27;;;12.40;99.40;;;;;;10398591;28;20222;-80
2023/02/19 08:37:38;;;;;;;2.00;1.90;;;12.40;99.90;;;;;;10415821;28;20194;-81
2023/02/19 08:42:40;;;;;;;2.10;2.00;;;12.50;99.90;;;;;;10397464;28;20244;-78
2023/02/19 08:47:42;;;;;;;2.30;2.20;;;12.50;99.40;;;;;;10380937;28;20674;-78
2023/02/19 08:52:45;;;;;;;2.00;1.90;;;12.60;99.20;;;;;;10396473;28;20314;-79
2023/02/19 08:57:47;;;;;;;2.10;2.00;;;12.50;99.60;;;;;;10397558;28;20232;-78
2023/02/19 09:02:50;;;;;;;1.90;1.80;;;12.50;99.30;;;;;;10415448;28;20214;-79
2023/02/19 09:07:53;;;;;;;1.57;1.57;;;12.50;99.60;;;;;;10394915;28;20226;-79
2023/02/19 09:12:55;;;;;;;2.17;2.07;;;12.40;99.70;;;;;;10395055;28;20623;-79
2023/02/19 09:17:57;;;;;;;2.30;2.10;;;12.40;99.80;;;;;;10411248;28;20228;-79
2023/02/19 09:23:01;;;;;;;2.23;2.13;;;12.40;98.90;;;;;;10424385;28;20226;-79
2023/02/19 09:28:03;;;;;;;2.00;1.90;;;12.40;99.30;;;;;;10413212;28;20203;-77
2023/02/19 09:33:06;;;;;;;2.13;2.03;;;12.50;99.30;;;;;;10378942;28;20588;-80
2023/02/19 09:38:10;;;;;;;2.27;2.17;;;12.50;99.30;;;;;;10429065;28;20288;-77
2023/02/19 09:43:16;;;;;;;2.60;2.50;;;12.60;98.10;;;;;;10407110;28;20293;-79
2023/02/19 09:48:18;;;;;;;3.30;3.00;;;12.70;97.30;;;;;;10398172;28;20198;-80
2023/02/19 09:53:25;;;;;;;2.53;2.10;;;12.80;97.40;;;;;;10410325;28;20211;-79
2023/02/19 09:58:31;;;;;;;2.30;2.10;;;12.80;96.00;;;;;;10427428;28;20206;-78
2023/02/19 10:03:39;;;;;;;2.40;2.20;;;12.80;96.90;;;;;;10417887;28;20210;-78
2023/02/19 10:08:46;;;;;;;2.40;2.20;;;12.90;96.80;;;;;;10417609;28;20226;-78
2023/02/19 10:13:50;;;;;;;2.90;1.97;;;13.00;96.70;;;;;;10405039;28;20214;-79
2023/02/19 10:18:53;;;;;;;2.87;2.30;;;13.20;95.60;;;;;;10434460;28;20670;-81
2023/02/19 10:24:00;;;;;;;2.53;2.33;;;13.30;95.30;;;;;;10440322;28;20222;-80
2023/02/19 10:29:02;;;;;;;3.20;2.47;;;13.30;96.00;;;;;;10451105;28;20190;-78
2023/02/19 10:34:06;;;;;;;2.23;2.03;;;13.40;95.50;;;;;;10414366;28;20698;-79
2023/02/19 10:39:33;;;;;;;2.80;2.50;;;13.50;95.40;;;;;;10429608;28;20195;-81
2023/02/19 10:44:42;;;;;;;2.00;1.90;;;13.50;95.10;;;;;;10445882;28;20264;-79
2023/02/19 10:49:47;;;;;;;1.90;1.80;;;13.50;95.20;;;;;;10448765;28;20281;-79
2023/02/19 10:54:52;;;;;;;2.37;2.17;;;13.50;95.30;;;;;;10425805;28;20578;-81
2023/02/19 10:59:57;;;;;;;4.30;2.47;;;13.60;95.20;;;;;;10442259;28;20281;-82
2023/02/19 11:05:15;;;;;;;2.30;2.00;;;13.70;95.10;;;;;;10435520;28;20198;-79
2023/02/19 11:10:28;;;;;;;6.77;2.47;;;13.70;94.90;;;;;;10418782;28;20265;-79
2023/02/19 11:15:32;;;;;;;6.53;2.40;;;13.80;94.80;;;;;;10440598;28;20559;-78
2023/02/19 11:20:35;;;;;;;2.53;1.87;;;13.90;94.40;;;;;;10442925;28;20721;-80
2023/02/19 11:25:45;;;;;;;2.10;1.90;;;14.00;93.80;;;;;;10399563;28;20237;-78
2023/02/19 11:30:47;;;;;;;2.40;2.13;;;14.00;93.40;;;;;;10404141;28;20221;-78
2023/02/19 11:35:51;;;;;;;3.50;2.60;;;14.00;93.80;;;;;;10409237;28;20205;-80
2023/02/19 11:41:07;;;;;;;3.17;2.30;;;14.00;94.00;;;;;;10413635;28;20638;-80
2023/02/19 11:46:15;;;;;;;2.77;2.30;;;13.90;93.80;;;;;;10406761;28;20252;-79
2023/02/19 11:51:38;;;;;;;2.50;2.30;;;13.90;93.80;;;;;;10384951;28;20217;-77
2023/02/19 11:56:43;;;;;;;2.17;2.00;;;13.90;93.90;;;;;;10404152;28;20194;-78
2023/02/19 12:02:02;;;;;;;2.50;2.30;;;13.90;94.90;;;;;;10438629;28;20225;-76
2023/02/19 12:07:24;;;;;;;2.10;2.00;;;13.90;94.60;;;;;;10431275;28;20189;-78
2023/02/19 12:12:40;;;;;;;2.60;2.40;;;14.00;94.20;;;;;;10447772;28;20245;-77
2023/02/19 12:18:04;;;;;;;4.13;2.50;;;14.00;94.30;;;;;;10405999;28;20565;-77
2023/02/19 12:23:36;;;;;;;2.90;2.30;;;14.00;93.90;;;;;;10395555;28;20222;-78
2023/02/19 12:29:06;;;;;;;3.53;2.83;;;14.00;93.70;;;;;;10395401;28;20279;-77
2023/02/19 12:34:25;;;;;;;4.60;2.40;;;14.00;93.40;;;;;;10395130;28;20219;-77
2023/02/19 12:39:38;;;;;;;2.23;2.07;;;14.10;93.50;;;;;;10394165;28;20225;-77
2023/02/19 12:44:46;;;;;;;2.50;2.30;;;14.20;93.20;;;;;;10412943;28;20217;-77
2023/02/19 12:49:53;;;;;;;2.23;1.93;;;14.20;91.70;;;;;;10399892;28;20285;-78
2023/02/19 12:55:01;;;;;;;2.00;1.90;;;14.10;93.60;;;;;;10420266;28;20687;-78
2023/02/19 13:00:28;;;;;;;1.93;1.83;;;14.20;93.20;;;;;;10403772;28;20312;-77
2023/02/19 13:05:40;;;;;;;2.90;2.00;;;14.20;92.80;;;;;;10378865;28;20596;-77
2023/02/19 13:10:46;;;;;;;3.87;2.53;;;14.20;93.00;;;;;;10415874;28;20219;-78
2023/02/19 13:15:52;;;;;;;2.60;2.40;;;14.20;92.80;;;;;;10401209;28;20221;-80
2023/02/19 13:20:55;;;;;;;2.70;2.13;;;14.10;91.50;;;;;;10424445;28;20234;-80
2023/02/19 13:26:15;;;;;;;2.40;2.20;;;14.00;92.60;;;;;;10386623;28;20278;-80
2023/02/19 13:31:45;;;;;;;3.30;2.30;;;14.00;92.60;;;;;;10404962;28;20229;-80
2023/02/19 13:36:48;;;;;;;2.00;1.90;;;14.00;92.00;;;;;;10406086;28;20233;-78
2023/02/19 13:41:53;;;;;;;3.33;2.37;;;13.90;91.00;;;;;;10446182;28;20213;-80
2023/02/19 13:46:57;;;;;;;2.53;2.33;;;13.80;92.40;;;;;;10425050;28;20205;-79
2023/02/19 13:52:00;;;;;;;2.77;2.40;;;13.60;92.20;;;;;;10397664;28;20214;-77
2023/02/19 13:57:27;;;;;;;2.90;2.37;;;13.60;92.50;;;;;;10388843;28;20191;-78
2023/02/19 14:02:33;;;;;;;3.77;3.47;;;13.50;92.80;;;;;;10405801;28;20210;-78
2023/02/19 14:07:54;;;;;;;2.90;2.60;;;13.40;93.50;;;;;;10410829;28;20198;-78
2023/02/19 14:12:57;;;;;;;2.50;2.30;;;13.40;93.00;;;;;;10427219;28;20226;-76
2023/02/19 14:18:00;;;;;;;3.03;2.83;;;13.40;93.10;;;;;;10395555;28;20622;-79
2023/02/19 14:23:15;;;;;;;2.33;2.03;;;13.40;92.70;;;;;;10421648;28;20308;-77
2023/02/19 14:28:34;;;;;;;6.43;3.50;;;13.40;92.50;;;;;;10421783;28;20229;-78
2023/02/19 14:34:02;;;;;;;3.50;2.30;;;13.30;92.80;;;;;;10418697;28;20236;-78
2023/02/19 14:39:06;;;;;;;2.70;2.50;;;13.40;92.40;;;;;;10428109;28;20198;-79
2023/02/19 14:44:15;;;;;;;3.10;2.83;;;13.40;93.10;;;;;;10454085;28;20220;-79
2023/02/19 14:49:25;;;;;;;3.13;2.63;;;13.40;93.90;;;;;;10427901;28;20216;-76
2023/02/19 14:54:46;;;;;;;2.97;1.90;;;13.50;92.70;;;;;;10407691;28;20237;-79
2023/02/19 14:59:56;;;;;;;3.63;2.77;;;13.50;92.50;;;;;;10400818;28;20202;-78
2023/02/19 15:04:59;;;;;;;2.93;2.63;;;13.50;93.30;;;;;;10386254;28;20199;-78
2023/02/19 15:10:07;;;;;;;2.80;2.60;;;13.50;93.40;;;;;;10440412;28;20222;-78
2023/02/19 15:15:16;;;;;;;2.63;2.47;;;13.50;93.00;;;;;;10423372;28;20225;-80
2023/02/19 15:20:26;;;;;;;6.00;2.80;;;13.50;92.90;;;;;;10404641;28;20293;-77
2023/02/19 15:25:34;;;;;;;3.20;2.70;;;13.40;92.70;;;;;;10417850;28;20253;-79
2023/02/19 15:30:37;;;;;;;3.07;2.77;;;13.40;92.60;;;;;;10417505;28;20214;-77
2023/02/19 15:35:40;;;;;;;3.50;2.80;;;13.40;92.70;;;;;;10435025;28;20229;-78
2023/02/19 15:40:44;;;;;;;3.80;3.33;;;13.30;93.20;;;;;;10429606;28;20237;-80
2023/02/19 15:45:47;;;;;;;2.93;2.73;;;13.20;93.30;;;;;;10427175;28;20285;-81
2023/02/19 15:50:53;;;;;;;2.90;2.70;;;13.20;93.40;;;;;;10413850;28;20587;-80
2023/02/19 15:56:02;;;;;;;3.83;2.80;;;13.10;93.40;;;;;;10427961;28;20226;-79
2023/02/19 16:01:07;;;;;;;4.53;3.13;;;13.10;93.90;;;;;;10388679;28;20536;-77
2023/02/19 16:06:13;;;;;;;5.50;4.00;;;13.00;94.20;;;;;;10419628;28;20214;-78
2023/02/19 16:11:27;;;;;;;4.30;3.40;;;13.00;94.50;;;;;;10418196;28;20217;-78
2023/02/19 16:16:36;;;;;;;4.50;2.80;;;13.00;94.70;;;;;;10433862;28;20222;-78
2023/02/19 16:21:44;;;;;;;4.63;2.60;;;13.00;94.00;;;;;;10451198;28;20225;-78
2023/02/19 16:26:46;;;;;;;3.93;3.30;;;12.90;93.90;;;;;;10454068;28;20194;-79
2023/02/19 16:31:50;;;;;;;2.70;2.23;;;12.80;94.00;;;;;;10438718;28;20218;-82
2023/02/19 16:36:53;;;;;;;3.10;2.80;;;12.70;94.70;;;;;;10455678;28;20194;-79
2023/02/19 16:42:12;;;;;;;2.90;2.70;;;12.70;95.10;;;;;;10449911;28;20642;-78
2023/02/19 16:47:28;;;;;;;4.83;3.27;;;12.70;94.90;;;;;;10434075;28;20244;-78
2023/02/19 16:52:31;;;;;;;14.33;9.37;;;12.60;95.00;;;;;;10459299;28;20209;-80
2023/02/19 16:57:33;;;;;;;16.20;10.00;;;12.60;94.60;;;;;;10436113;28;20210;-79
2023/02/19 17:02:35;;;;;;;5.93;3.77;;;12.60;94.90;;;;;;10421605;28;20218;-77
2023/02/19 17:07:39;;;;;;;3.30;3.10;;;12.50;95.40;;;;;;10436238;28;20205;-79
2023/02/19 17:12:41;;;;;;;3.33;2.80;;;12.50;95.30;;;;;;10391790;28;20729;-79
2023/02/19 17:17:43;;;;;;;4.27;3.30;;;12.50;95.20;;;;;;10432866;28;20617;-79
2023/02/19 17:22:46;;;;;;;4.87;2.63;;;12.40;95.70;;;;;;10444121;28;20274;-79
2023/02/19 17:27:48;;;;;;;3.10;2.90;;;12.30;96.20;;;;;;10434780;28;20276;-78
2023/02/19 17:32:50;;;;;;;3.47;3.17;;;12.30;96.30;;;;;;10433978;28;20585;-79
2023/02/19 17:37:54;;;;;;;5.47;3.93;;;12.30;96.60;;;;;;10423313;28;20202;-79
2023/02/19 17:42:56;;;;;;;3.53;3.23;;;12.30;96.70;;;;;;10406523;28;20697;-79
2023/02/19 17:48:00;;;;;;;3.57;3.30;;;12.30;96.70;;;;;;10402513;28;20195;-78
2023/02/19 17:53:03;;;;;;;3.53;3.33;;;12.30;96.90;;;;;;10445428;28;20299;-78
2023/02/19 17:58:05;;;;;;;6.40;4.30;;;12.30;96.50;;;;;;10440732;28;20202;-79
2023/02/19 18:03:07;;;;;;;3.30;3.00;;;12.30;96.70;;;;;;10412790;28;20297;-79
2023/02/19 18:08:11;;;;;;;5.03;3.30;;;12.30;96.50;;;;;;10412451;28;20195;-80
2023/02/19 18:13:13;;;;;;;3.93;3.60;;;12.20;96.30;;;;;;10444921;28;20596;-79
2023/02/19 18:18:15;;;;;;;3.30;2.87;;;12.20;96.80;;;;;;10445648;28;20568;-79
2023/02/19 18:23:20;;;;;;;4.07;3.60;;;12.20;96.80;;;;;;10374874;28;20231;-79
2023/02/19 18:28:22;;;;;;;4.57;3.20;;;12.20;97.00;;;;;;10399875;28;20198;-79
2023/02/19 18:33:24;;;;;;;3.77;3.33;;;12.20;97.10;;;;;;10432586;28;20251;-80
2023/02/19 18:38:27;;;;;;;8.93;3.23;;;12.20;96.90;;;;;;10452179;28;20290;-79
2023/02/19 18:43:29;;;;;;;5.90;3.93;;;12.20;96.60;;;;;;10420345;28;20240;-79
2023/02/19 18:48:31;;;;;;;4.30;3.50;;;12.20;97.10;;;;;;10414424;28;20215;-79
2023/02/19 18:53:34;;;;;;;4.27;3.87;;;12.20;96.90;;;;;;10438500;28;20360;-78
2023/02/19 18:58:36;;;;;;;3.60;3.30;;;12.20;96.60;;;;;;10418452;28;20213;-79
2023/02/19 19:03:38;;;;;;;3.73;3.23;;;12.10;96.90;;;;;;10432047;28;20329;-78
2023/02/19 19:08:42;;;;;;;5.20;4.50;;;12.10;96.90;;;;;;10438850;28;20229;-78
2023/02/19 19:13:46;;;;;;;4.67;3.80;;;12.20;97.00;;;;;;10416785;28;20227;-79
2023/02/19 19:18:48;;;;;;;4.60;3.80;;;12.10;96.80;;;;;;10420124;28;20207;-79
2023/02/19 19:23:51;;;;;;;19.77;12.13;;;12.20;96.60;;;;;;10382822;28;20241;-79
2023/02/19 19:28:53;;;;;;;41.47;22.40;;;12.20;96.50;;;;;;10420030;28;20195;-78
2023/02/19 19:33:55;;;;;;;8.83;5.20;;;12.10;96.90;;;;;;10381310;28;20764;-79
2023/02/19 19:38:59;;;;;;;5.10;4.30;;;12.10;96.60;;;;;;10415897;28;20199;-79
2023/02/19 19:44:03;;;;;;;5.77;5.17;;;12.10;96.50;;;;;;10419595;28;20227;-79
2023/02/19 19:49:05;;;;;;;8.30;3.57;;;12.10;96.60;;;;;;10417964;28;20258;-80
2023/02/19 19:54:09;;;;;;;7.53;3.60;;;12.10;96.50;;;;;;10402746;28;20421;-79
2023/02/19 19:59:11;;;;;;;8.10;4.37;;;12.10;96.70;;;;;;10384327;28;20201;-79
2023/02/19 20:04:13;;;;;;;4.90;2.97;;;12.10;96.60;;;;;;10407140;28;20272;-80
2023/02/19 20:09:17;;;;;;;7.47;3.57;;;12.10;96.80;;;;;;10422505;28;20199;-81
2023/02/19 20:14:21;;;;;;;3.80;3.40;;;12.10;96.30;;;;;;10408146;28;20222;-80
2023/02/19 20:19:24;;;;;;;4.90;3.30;;;12.10;96.10;;;;;;10421317;28;20208;-80
2023/02/19 20:24:28;;;;;;;4.97;3.23;;;12.00;96.80;;;;;;10426880;28;20246;-79
2023/02/19 20:29:32;;;;;;;4.20;3.80;;;12.00;96.60;;;;;;10392018;28;20213;-80
2023/02/19 20:34:34;;;;;;;6.27;3.43;;;12.00;96.60;;;;;;10409964;28;20238;-79
2023/02/19 20:39:37;;;;;;;5.13;3.63;;;12.00;96.80;;;;;;10426031;28;20194;-79
2023/02/19 20:44:42;;;;;;;4.20;3.60;;;12.00;96.60;;;;;;10448294;28;20219;-79
2023/02/19 20:49:45;;;;;;;4.63;3.37;;;12.00;96.70;;;;;;10414446;28;20202;-79
2023/02/19 20:54:49;;;;;;;4.10;3.17;;;11.90;96.60;;;;;;10434367;28;20218;-80
2023/02/19 20:59:51;;;;;;;8.57;3.70;;;11.90;96.80;;;;;;10404432;28;20205;-81
2023/02/19 21:04:53;;;;;;;5.80;3.43;;;11.90;97.10;;;;;;10402763;28;20229;-80
2023/02/19 21:09:56;;;;;;;4.57;3.70;;;11.90;97.00;;;;;;10419454;28;20489;-80
2023/02/19 21:14:58;;;;;;;9.67;4.40;;;11.90;97.10;;;;;;10423819;28;20230;-80
2023/02/19 21:20:00;;;;;;;4.63;3.63;;;12.00;96.80;;;;;;10426241;28;20208;-80
2023/02/19 21:25:04;;;;;;;4.47;3.80;;;11.90;96.70;;;;;;10421044;28;20190;-79
2023/02/19 21:30:08;;;;;;;7.10;5.37;;;11.90;97.00;;;;;;10445504;28;20226;-80
2023/02/19 21:35:10;;;;;;;6.10;4.53;;;11.90;97.20;;;;;;10440775;28;20222;-81
2023/02/19 21:40:14;;;;;;;4.60;4.10;;;11.90;97.50;;;;;;10441418;28;20489;-80
2023/02/19 21:45:16;;;;;;;5.00;4.20;;;11.90;97.30;;;;;;10453783;28;20190;-80
2023/02/19 21:50:19;;;;;;;5.07;4.00;;;11.90;97.10;;;;;;10449540;28;20375;-79
2023/02/19 21:55:22;;;;;;;6.27;4.00;;;11.90;97.10;;;;;;10422004;28;20232;-80
2023/02/19 22:00:25;;;;;;;6.53;3.90;;;11.80;97.10;;;;;;10462587;28;20218;-79
2023/02/19 22:05:27;;;;;;;6.23;3.80;;;11.80;97.20;;;;;;10444853;28;20265;-80
2023/02/19 22:10:31;;;;;;;4.40;4.00;;;11.80;96.90;;;;;;10446597;28;20225;-80
2023/02/19 22:15:33;;;;;;;5.67;3.50;;;11.80;97.40;;;;;;10468099;28;20308;-80
2023/02/19 22:20:37;;;;;;;4.93;3.27;;;11.80;97.90;;;;;;10445738;28;20269;-81
2023/02/19 22:25:40;;;;;;;5.00;4.50;;;11.80;98.20;;;;;;10410323;28;20210;-80
2023/02/19 22:30:43;;;;;;;5.87;3.97;;;11.80;98.40;;;;;;10407535;28;20273;-80
2023/02/19 22:35:45;;;;;;;7.27;4.10;;;11.80;98.10;;;;;;10409129;28;20218;-80
2023/02/19 22:40:48;;;;;;;4.87;4.13;;;11.80;97.80;;;;;;10427968;28;20715;-80
2023/02/19 22:45:50;;;;;;;6.60;4.20;;;11.80;97.70;;;;;;10406826;28;20241;-80
2023/02/19 22:50:53;;;;;;;4.33;3.83;;;11.80;98.00;;;;;;10433192;28;20305;-81
2023/02/19 22:55:57;;;;;;;9.73;4.33;;;11.80;97.40;;;;;;10449619;28;20685;-80
2023/02/19 23:00:59;;;;;;;6.70;4.33;;;11.80;97.90;;;;;;10429290;28;20215;-80
2023/02/19 23:06:03;;;;;;;35.30;21.67;;;11.80;98.10;;;;;;10414846;28;20220;-79
2023/02/19 23:11:07;;;;;;;5.13;4.73;;;11.80;98.20;;;;;;10430151;28;20246;-80
2023/02/19 23:16:09;;;;;;;4.70;4.10;;;11.80;97.90;;;;;;10433425;28;20770;-80
2023/02/19 23:21:11;;;;;;;4.83;4.33;;;11.80;98.10;;;;;;10420261;28;20576;-80
2023/02/19 23:26:16;;;;;;;4.83;4.40;;;11.80;98.00;;;;;;10447584;28;20204;-79
2023/02/19 23:31:21;;;;;;;6.13;4.60;;;11.70;98.00;;;;;;10434936;28;20214;-80
2023/02/19 23:36:24;;;;;;;6.90;6.20;;;11.80;97.90;;;;;;10455365;28;20249;-79
2023/02/19 23:41:28;;;;;;;5.43;4.10;;;11.70;98.00;;;;;;10455063;28;20225;-79
2023/02/19 23:46:30;;;;;;;5.67;4.53;;;11.70;97.60;;;;;;10463073;28;20655;-79
2023/02/19 23:51:33;;;;;;;6.87;4.30;;;11.60;98.00;;;;;;10467987;28;20221;-79
2023/02/19 23:56:36;;;;;;;4.30;4.00;;;11.60;98.30;;;;;;10457918;28;20245;-79
